• Join FlightAware (Why Join?)
  • Login
  • US Flag 
04:20AM EDT


 

Airport Tracker/Info


-or-


 

Live Flight TrackerFlight Track Log ✈ N541JD ✈ 24-Dec-2013 ✈ KPIE - KEKY

Flight Track Log - Related Links

Times and Time Zones

All times are in EST time to prevent confusion due to time zone crossing. See the N541JD flight status page for this flight to view local times or setup timezone preferences in your user account.

Time Position Orientation Groundspeed Altitude Reporting Facility
EST Latitude Longitude Course Direction KTS MPH feet Rate Location/Type
07:10PM 27.9333 -82.7000 319° Northwest 121 139 600  Level Tampa TRACON
07:11PM 27.9667 -82.7167 336° Northwest 136 157 1,400 900 Climbing Tampa TRACON
07:12PM 28.0000 -82.7333 336° Northwest 132 152 2,400 900 Climbing Tampa TRACON
07:13PM 28.0333 -82.7500 336° Northwest 146 168 3,200 900 Climbing Tampa TRACON
07:14PM 28.0667 -82.7500 360° North 136 157 4,200 900 Climbing Tampa TRACON
07:15PM 28.1000 -82.7667 336° Northwest 128 147 5,100 900 Climbing Tampa TRACON
07:17PM 28.1728 -82.7747 354° North 152 175 7,000 840 Climbing Jacksonville Center
07:18PM 28.2061 -82.7819 349° North 133 153 7,800 540 Climbing Jacksonville Center
07:19PM 28.2417 -82.7911 347° North 127 146 8,100 180 Climbing Jacksonville Center
07:20PM 28.2856 -82.7958 355° North 133 153 8,200  Climbing Jacksonville Center
07:21PM 28.3294 -82.8078 347° North 144 166 8,200  Level Jacksonville Center
07:22PM 28.3711 -82.8147 352° North 149 171 8,200  Level Jacksonville Center
07:23PM 28.4150 -82.8217 352° North 149 171 8,200  Level Jacksonville Center
07:24PM 28.4589 -82.8289 352° North 149 171 8,200  Level Jacksonville Center
07:25PM 28.5006 -82.8406 346° North 154 177 8,200  Level Jacksonville Center
07:26PM 28.5422 -82.8478 351° North 154 177 8,200  Level Jacksonville Center
07:27PM 28.5861 -82.8572 349° North 154 177 8,200  Level Jacksonville Center
07:28PM 28.6300 -82.8642 352° North 154 177 8,200  Level Jacksonville Center
07:29PM 28.6717 -82.8714 351° North 154 177 8,200  Level Jacksonville Center
07:30PM 28.7197 -82.8808 350° North 154 177 8,200  Level Jacksonville Center
07:31PM 28.7633 -82.8878 352° North 154 177 8,200  Level Jacksonville Center
07:32PM 28.8072 -82.8950 352° North 154 177 8,200  Level Jacksonville Center
07:33PM 28.8511 -82.9044 349° North 159 183 8,200  Level Jacksonville Center
07:34PM 28.8908 -82.9139 348° North 159 183 8,200  Level Jacksonville Center
07:35PM 28.9347 -82.9211 352° North 159 183 8,200  Level Jacksonville Center
07:36PM 28.9764 -82.9306 349° North 159 183 8,200 -60 Level Jacksonville Center
07:37PM 29.0181 -82.9378 351° North 159 183 8,100  Descending Jacksonville Center
07:38PM 29.0578 -82.9447 351° North 154 177 8,200  Climbing Jacksonville Center
07:39PM 29.0911 -82.9497 353° North 149 171 8,200  Level Jacksonville Center
07:40PM 29.1414 -82.9592 351° North 149 171 8,200  Level Jacksonville Center
07:41PM 29.1831 -82.9686 349° North 143 165 8,200  Level Jacksonville Center
07:42PM 29.2269 -82.9783 349° North 143 165 8,200  Level Jacksonville Center
07:43PM 29.2664 -82.9856 351° North 143 165 8,200  Level Jacksonville Center
07:44PM 29.3083 -82.9925 352° North 143 165 8,200  Level Jacksonville Center
07:45PM 29.3458 -83.0211 326° Northwest 143 165 8,200  Level Jacksonville Center
07:46PM 29.3769 -83.0522 319° Northwest 148 170 8,200  Level Jacksonville Center
07:47PM 29.4103 -83.0833 321° Northwest 153 176 8,200  Level Jacksonville Center
07:48PM 29.4439 -83.1167 319° Northwest 153 176 8,200 -60 Level Jacksonville Center
07:49PM 29.4792 -83.1478 322° Northwest 159 183 8,100 -60 Descending Jacksonville Center
07:50PM 29.5106 -83.1789 319° Northwest 159 183 8,100  Level Jacksonville Center
07:51PM 29.5458 -83.2100 323° Northwest 159 183 8,200  Climbing Jacksonville Center
07:52PM 29.5792 -83.2411 321° Northwest 159 183 8,100 -60 Descending Jacksonville Center
07:53PM 29.6125 -83.2725 321° Northwest 159 183 8,100  Level Jacksonville Center
07:54PM 29.6458 -83.3036 321° Northwest 159 183 8,200  Climbing Jacksonville Center
07:55PM 29.6792 -83.3347 321° Northwest 159 183 8,100  Descending Jacksonville Center
07:56PM 29.7125 -83.3661 321° Northwest 159 183 8,200  Climbing Jacksonville Center
07:57PM 29.7456 -83.3950 323° Northwest 159 183 8,200  Level Jacksonville Center
07:58PM 29.7789 -83.4286 319° Northwest 159 183 8,200  Level Jacksonville Center
07:59PM 29.8100 -83.4600 319° Northwest 159 183 8,200  Level Jacksonville Center
08:00PM 29.8414 -83.4889 321° Northwest 159 183 8,200  Level Jacksonville Center
08:01PM 29.8744 -83.5178 323° Northwest 159 183 8,200  Level Jacksonville Center
08:02PM 29.9078 -83.5492 321° Northwest 159 183 8,200 -60 Level Jacksonville Center
08:03PM 29.9389 -83.5781 321° Northwest 159 183 8,100 -60 Descending Jacksonville Center
08:04PM 29.9700 -83.6119 317° Northwest 159 183 8,100  Level Jacksonville Center
08:05PM 30.0033 -83.6386 325° Northwest 159 183 8,100  Level Jacksonville Center
08:06PM 30.0344 -83.6700 319° Northwest 159 183 8,100  Level Jacksonville Center
08:07PM 30.0656 -83.6989 321° Northwest 154 177 8,100  Level Jacksonville Center
08:08PM 30.0967 -83.7281 321° Northwest 154 177 8,100  Level Jacksonville Center
08:09PM 30.1278 -83.7572 321° Northwest 154 177 8,100  Level Jacksonville Center
08:10PM 30.1611 -83.7886 321° Northwest 154 177 8,100  Level Jacksonville Center
08:36PM 30.9903 -84.5889 319° Northwest 147 169 8,100  Level Jacksonville Center
08:36PM 30.9922 -84.5914 312° West 148 170 8,100  Level Jacksonville Center
08:37PM 31.0019 -84.6032 320° Northwest  Level FlightAware Approximate
08:37PM 31.0253 -84.6236 320° Northwest 146 168 8,100  Level Jacksonville Center
08:38PM 31.0338 -84.6344 320° Northwest  Level FlightAware Approximate
08:38PM 31.0561 -84.6508 323° Northwest 146 168 8,100  Level Jacksonville Center
08:39PM 31.0657 -84.6657 320° Northwest  Level FlightAware Approximate
08:39PM 31.0869 -84.6853 316° Northwest 146 168 8,100  Level Jacksonville Center
08:40PM 31.0973 -84.6973 319° Northwest  Level FlightAware Approximate
08:41PM 31.1290 -84.7289 319° Northwest  Level FlightAware Approximate
08:41PM 31.1200 -84.7150 322° Northwest 145 167 8,100  Level Jacksonville Center
08:42PM 31.1606 -84.7606 319° Northwest  Level FlightAware Approximate
08:42PM 31.1508 -84.7447 320° Northwest 145 167 8,100  Level Jacksonville Center
08:43PM 31.1817 -84.7769 318° Northwest 146 168 8,100  Level Jacksonville Center
08:44PM 31.2125 -84.8042 323° Northwest 146 168 8,100  Level Jacksonville Center
08:45PM 31.2456 -84.8389 318° Northwest 145 167 8,100  Level Jacksonville Center
08:46PM 31.2742 -84.8686 318° Northwest 146 168 8,100  Level Jacksonville Center
08:47PM 31.3072 -84.8986 322° Northwest 147 169 8,100  Level Jacksonville Center
08:48PM 31.3381 -84.9283 321° Northwest 148 170 8,100  Level Jacksonville Center
08:49PM 31.3689 -84.9608 318° Northwest 145 167 8,100  Level Jacksonville Center
08:50PM 31.4039 -84.9931 322° Northwest 146 168 8,100  Level Jacksonville Center
08:51PM 31.4325 -85.0231 318° Northwest 147 169 8,100  Level Jacksonville Center
08:52PM 31.4633 -85.0556 318° Northwest 146 168 8,100  Level Jacksonville Center
08:53PM 31.4961 -85.0856 322° Northwest 146 168 8,100  Level Jacksonville Center
08:54PM 31.5269 -85.1153 321° Northwest 146 168 8,100  Level Jacksonville Center
08:55PM 31.5578 -85.1453 320° Northwest 147 169 8,100  Level Jacksonville Center
08:56PM 31.5906 -85.1803 318° Northwest 148 170 8,100  Level Jacksonville Center
08:57PM 31.6233 -85.2103 322° Northwest 148 170 8,100  Level Jacksonville Center
08:58PM 31.6519 -85.2428 316° Northwest 147 169 8,100  Level Jacksonville Center
08:59PM 31.7000 -85.2833 324° Northwest 149 171 8,100  Level Atlanta TRACON
09:00PM 31.7333 -85.3167 320° Northwest 148 170 8,100  Level Atlanta TRACON
09:02PM 31.7667 -85.3500 320° Northwest 148 170 8,100  Level Atlanta TRACON
09:02PM 31.8000 -85.3833 320° Northwest 147 169 8,100  Level Atlanta TRACON
09:03PM 31.8333 -85.4167 320° Northwest 146 168 8,100  Level Atlanta TRACON
09:04PM 31.8667 -85.4500 320° Northwest 144 166 8,100  Level Atlanta TRACON
09:05PM 31.9000 -85.4833 320° Northwest 145 167 8,100  Level Atlanta TRACON
09:06PM 31.9167 -85.5000 320° Northwest 145 167 8,100  Level Atlanta TRACON
09:07PM 31.9500 -85.5333 320° Northwest 147 169 8,100 -60 Level Atlanta TRACON
09:34PM 32.7581 -86.3606 320° Northwest 144 166 8,000 -60 Descending Atlanta Center
09:34PM 32.7619 -86.3658 311° West 145 167 7,900 -660 Descending Atlanta Center
09:35PM 32.8113 -86.4109 320° Northwest  Level FlightAware Approximate
09:35PM 32.7969 -86.3964 324° Northwest 158 182 7,300  Level Atlanta Center
09:36PM 32.8431 -86.4428 320° Northwest  Level FlightAware Approximate
09:36PM 32.8297 -86.4317 318° Northwest 169 194 6,700  Level Atlanta Center
09:37PM 32.8750 -86.4747 320° Northwest  Level FlightAware Approximate
09:37PM 32.8664 -86.4722 317° Northwest 172 198 5,900  Level Atlanta Center
09:38PM 32.9068 -86.5067 320° Northwest  Level FlightAware Approximate
09:38PM 32.9033 -86.5131 317° Northwest 170 196 5,300  Level Atlanta Center
09:39PM 32.9387 -86.5386 320° Northwest  Level FlightAware Approximate
09:39PM 32.9339 -86.5411 322° Northwest 168 193 4,600  Level Atlanta Center
09:40PM 32.9708 -86.5742 323° Northwest 167 192 4,200 -300 Descending Atlanta Center
09:41PM 33.0056 -86.6150 315° West 165 190 4,100 -60 Descending Atlanta Center
09:42PM 33.0422 -86.6506 321° Northwest 150 173 4,100  Level Atlanta Center
09:44PM 33.0887 -86.7037 316° Northwest  Level FlightAware Approximate
09:51PM 33.3000 -86.9167 320° Northwest  Level FlightAware Approximate
09:52PM 33.3126 -86.9263 320° Northwest  Level Estimated
09:53PM 33.3126 -86.9263 320° Northwest  Level Estimated